createdAt,value
2022-12-07T00:00:51.255Z,2.61
2022-12-07T00:01:51.310Z,2.67
2022-12-07T00:02:52.332Z,2.62
2022-12-07T00:03:51.292Z,2.71
2022-12-07T00:04:51.283Z,2.65
2022-12-07T00:05:51.208Z,2.80
2022-12-07T00:06:51.185Z,2.68
2022-12-07T00:07:51.271Z,2.65
2022-12-07T00:08:51.183Z,2.68
2022-12-07T00:09:51.182Z,2.65
2022-12-07T00:10:51.180Z,2.72
2022-12-07T00:11:51.141Z,2.67
2022-12-07T00:12:51.134Z,2.71
2022-12-07T00:13:51.134Z,2.64
2022-12-07T00:14:51.202Z,2.74
2022-12-07T00:15:52.129Z,2.71
2022-12-07T00:16:51.210Z,2.64
2022-12-07T00:17:51.100Z,2.68
2022-12-07T00:18:51.122Z,2.60
2022-12-07T00:19:51.117Z,2.67
2022-12-07T00:20:51.072Z,2.67
2022-12-07T00:21:51.100Z,2.75
2022-12-07T00:22:51.056Z,2.64
2022-12-07T00:23:51.050Z,2.74
2022-12-07T00:24:51.079Z,2.68
2022-12-07T00:25:51.029Z,2.72
2022-12-07T00:26:51.054Z,2.72
2022-12-07T00:27:51.069Z,2.72
2022-12-07T00:28:51.030Z,2.67
2022-12-07T00:29:50.995Z,2.68
2022-12-07T00:30:51.088Z,2.79
2022-12-07T00:32:22.906Z,2.69
2022-12-07T00:32:51.029Z,2.67
2022-12-07T00:33:51.083Z,2.75
2022-12-07T00:34:51.041Z,2.69
2022-12-07T00:35:51.003Z,2.79
2022-12-07T00:36:51.020Z,2.83
2022-12-07T00:37:51.017Z,2.79
2022-12-07T00:38:50.967Z,2.75
2022-12-07T00:39:50.962Z,2.75
2022-12-07T00:40:50.923Z,2.83
2022-12-07T00:41:50.936Z,2.80
2022-12-07T00:42:50.913Z,2.77
2022-12-07T00:43:50.921Z,2.72
2022-12-07T00:44:50.899Z,2.77
2022-12-07T00:45:50.935Z,2.83
2022-12-07T00:46:50.915Z,2.77
2022-12-07T00:47:50.970Z,2.80
2022-12-07T00:48:50.908Z,2.74
2022-12-07T00:49:50.842Z,2.80
2022-12-07T00:50:50.854Z,2.82
2022-12-07T00:51:50.850Z,2.75
2022-12-07T00:52:50.825Z,2.80
2022-12-07T00:53:50.822Z,2.82
2022-12-07T00:54:50.800Z,2.65
2022-12-07T00:55:50.818Z,2.86
2022-12-07T00:56:50.823Z,2.83
2022-12-07T00:57:50.818Z,2.80
2022-12-07T00:58:50.791Z,2.82
2022-12-07T00:59:50.779Z,2.83
2022-12-07T01:00:50.800Z,2.82
2022-12-07T01:01:50.898Z,2.80
2022-12-07T01:02:50.778Z,2.82
2022-12-07T01:03:50.761Z,2.86
2022-12-07T01:04:50.782Z,2.80
2022-12-07T01:05:50.751Z,2.82
2022-12-07T01:06:50.746Z,2.83
2022-12-07T01:07:50.762Z,2.89
2022-12-07T01:08:50.712Z,2.83
2022-12-07T01:09:50.728Z,2.90
2022-12-07T01:10:50.699Z,2.83
2022-12-07T01:11:50.704Z,2.80
2022-12-07T01:12:50.673Z,2.90
2022-12-07T01:13:50.670Z,2.89
2022-12-07T01:14:50.699Z,2.86
2022-12-07T01:15:50.641Z,2.82
2022-12-07T01:16:50.719Z,2.82
2022-12-07T01:17:50.641Z,2.79
2022-12-07T01:18:50.624Z,2.80
2022-12-07T01:19:50.654Z,2.86
2022-12-07T01:20:50.635Z,2.89
2022-12-07T01:21:50.634Z,2.79
2022-12-07T01:22:50.607Z,2.83
2022-12-07T01:23:50.593Z,2.90
2022-12-07T01:24:50.616Z,2.87
2022-12-07T01:25:50.589Z,2.85
2022-12-07T01:26:50.575Z,2.80
2022-12-07T01:27:50.569Z,2.82
2022-12-07T01:28:50.571Z,2.86
2022-12-07T01:29:50.567Z,2.87
2022-12-07T01:30:50.641Z,2.90
2022-12-07T01:31:50.527Z,2.85
2022-12-07T01:32:50.538Z,2.86
2022-12-07T01:33:50.542Z,2.86
2022-12-07T01:34:50.575Z,2.85
2022-12-07T01:35:50.543Z,2.90
2022-12-07T01:36:50.527Z,2.92
2022-12-07T01:37:51.207Z,2.93
2022-12-07T01:38:50.494Z,2.90
2022-12-07T01:39:50.485Z,2.92
2022-12-07T01:40:50.460Z,2.93
2022-12-07T01:41:50.515Z,2.97
2022-12-07T01:42:50.460Z,2.92
2022-12-07T01:43:50.459Z,3.00
2022-12-07T01:44:50.443Z,2.93
2022-12-07T01:45:50.505Z,3.01
2022-12-07T01:46:50.454Z,2.98
2022-12-07T01:47:50.451Z,2.97
2022-12-07T01:48:50.434Z,3.11
2022-12-07T01:49:50.405Z,3.00
2022-12-07T01:50:50.438Z,3.07
2022-12-07T01:51:50.379Z,3.05
2022-12-07T01:52:50.419Z,3.11
2022-12-07T01:53:50.388Z,3.03
2022-12-07T01:54:50.426Z,3.03
2022-12-07T01:55:50.369Z,3.04
2022-12-07T01:56:50.374Z,3.10
2022-12-07T01:57:50.361Z,3.13
2022-12-07T01:58:50.384Z,3.08
2022-12-07T01:59:50.364Z,3.13
2022-12-07T02:00:50.396Z,3.16
2022-12-07T02:01:50.386Z,3.08
2022-12-07T02:02:50.385Z,3.07
2022-12-07T02:03:50.296Z,3.22
2022-12-07T02:04:50.299Z,3.08
2022-12-07T02:05:51.274Z,3.21
2022-12-07T02:06:50.284Z,3.14
2022-12-07T02:07:50.336Z,3.23
2022-12-07T02:08:50.268Z,3.14
2022-12-07T02:09:50.269Z,3.18
2022-12-07T02:10:50.308Z,3.23
2022-12-07T02:11:50.268Z,3.10
2022-12-07T02:12:50.236Z,3.25
2022-12-07T02:13:50.262Z,3.23
2022-12-07T02:14:50.252Z,3.18
2022-12-07T02:15:50.285Z,3.21
2022-12-07T02:16:50.188Z,3.22
2022-12-07T02:17:50.187Z,3.23
2022-12-07T02:18:50.164Z,3.25
2022-12-07T02:19:50.182Z,3.22
2022-12-07T02:20:50.159Z,3.23
2022-12-07T02:21:50.151Z,3.29
2022-12-07T02:22:50.161Z,3.29
2022-12-07T02:23:50.182Z,3.26
2022-12-07T02:24:50.211Z,3.21
2022-12-07T02:25:50.140Z,3.19
2022-12-07T02:26:50.121Z,3.23
2022-12-07T02:27:50.125Z,3.29
2022-12-07T02:28:50.103Z,3.28
2022-12-07T02:29:50.103Z,3.23
2022-12-07T02:30:50.129Z,3.19
2022-12-07T02:31:50.060Z,3.25
2022-12-07T02:32:50.128Z,3.25
2022-12-07T02:33:50.079Z,3.29
2022-12-07T02:34:50.084Z,3.36
2022-12-07T02:35:50.195Z,3.28
2022-12-07T02:36:50.057Z,3.23
2022-12-07T02:37:50.068Z,3.36
2022-12-07T02:38:50.041Z,3.36
2022-12-07T02:39:50.016Z,3.31
2022-12-07T02:40:50.082Z,3.37
2022-12-07T02:41:49.992Z,3.34
2022-12-07T02:42:50.986Z,3.41
2022-12-07T02:43:49.992Z,3.34
2022-12-07T02:44:49.961Z,3.44
2022-12-07T02:45:50.025Z,3.37
2022-12-07T02:46:50.912Z,3.36
2022-12-07T02:47:49.981Z,3.31
2022-12-07T02:48:49.976Z,3.40
2022-12-07T02:49:49.931Z,3.41
2022-12-07T02:50:49.933Z,3.44
2022-12-07T02:51:49.951Z,3.44
2022-12-07T02:52:49.914Z,3.40
2022-12-07T02:53:49.916Z,3.40
2022-12-07T02:54:49.905Z,3.44
2022-12-07T02:55:49.921Z,3.37
2022-12-07T02:56:49.935Z,3.34
2022-12-07T02:57:49.878Z,3.42
2022-12-07T02:59:21.802Z,3.53
2022-12-07T02:59:49.880Z,3.34
2022-12-07T03:00:49.862Z,3.41
2022-12-07T03:01:49.886Z,3.42
2022-12-07T03:02:49.871Z,3.37
2022-12-07T03:03:49.924Z,3.42
2022-12-07T03:04:49.833Z,3.37
2022-12-07T03:05:49.821Z,3.40
2022-12-07T03:06:49.824Z,3.40
2022-12-07T03:07:49.901Z,3.40
2022-12-07T03:08:49.831Z,3.41
2022-12-07T03:09:49.795Z,3.42
2022-12-07T03:10:49.789Z,3.48
2022-12-07T03:11:49.771Z,3.40
2022-12-07T03:12:49.778Z,3.42
2022-12-07T03:13:49.766Z,3.42
2022-12-07T03:14:49.825Z,3.47
2022-12-07T03:15:49.775Z,3.51
2022-12-07T03:16:49.738Z,3.47
2022-12-07T03:17:49.743Z,3.42
2022-12-07T03:18:49.747Z,3.42
2022-12-07T03:20:21.640Z,3.47
2022-12-07T03:20:49.716Z,3.42
2022-12-07T03:21:49.748Z,3.48
2022-12-07T03:22:49.687Z,3.50
2022-12-07T03:23:49.689Z,3.45
2022-12-07T03:24:49.677Z,3.44
2022-12-07T03:25:49.673Z,3.58
2022-12-07T03:26:49.711Z,3.50
2022-12-07T03:27:49.680Z,3.55
2022-12-07T03:28:49.639Z,3.55
2022-12-07T03:29:49.664Z,3.59
2022-12-07T03:30:49.711Z,3.55
2022-12-07T03:31:49.714Z,3.65
2022-12-07T03:32:49.643Z,3.53
2022-12-07T03:33:49.663Z,3.65
2022-12-07T03:34:49.619Z,3.65
2022-12-07T03:35:49.593Z,3.59
2022-12-07T03:36:49.588Z,3.60
2022-12-07T03:37:49.577Z,3.56
2022-12-07T03:38:49.563Z,3.58
2022-12-07T03:39:49.539Z,3.62
2022-12-07T03:40:49.545Z,3.63
2022-12-07T03:41:49.544Z,3.63
2022-12-07T03:42:49.566Z,3.63
2022-12-07T03:43:49.569Z,3.68
2022-12-07T03:44:49.523Z,3.76
2022-12-07T03:45:49.520Z,3.69
2022-12-07T03:46:49.574Z,3.76
2022-12-07T03:47:49.486Z,3.74
2022-12-07T04:03:19.441Z,3.70
2022-12-07T04:04:19.350Z,3.80
2022-12-07T04:05:19.409Z,3.88
2022-12-07T04:06:19.351Z,3.83
2022-12-07T04:07:19.359Z,3.88
2022-12-07T04:08:20.503Z,3.84
2022-12-07T04:09:20.470Z,3.94
2022-12-07T04:10:20.449Z,3.91
2022-12-07T04:11:20.471Z,3.98
2022-12-07T04:12:20.426Z,3.96
2022-12-07T04:13:20.447Z,3.91
2022-12-07T04:14:20.424Z,3.96
2022-12-07T04:15:20.407Z,3.96
2022-12-07T04:16:20.465Z,3.88
2022-12-07T04:17:20.446Z,3.98
2022-12-07T04:18:20.605Z,3.96
2022-12-07T04:19:20.378Z,3.99
2022-12-07T04:20:20.377Z,3.96
2022-12-07T04:21:20.407Z,3.96
2022-12-07T04:22:20.375Z,4.02
2022-12-07T04:23:20.355Z,3.99
2022-12-07T04:24:20.344Z,4.01
2022-12-07T04:25:20.344Z,3.96
2022-12-07T04:26:20.325Z,4.01
2022-12-07T04:27:20.365Z,4.04
2022-12-07T04:28:21.065Z,4.04
2022-12-07T04:29:20.321Z,4.02
2022-12-07T04:30:20.409Z,4.04
2022-12-07T04:31:20.360Z,4.04
2022-12-07T04:32:20.294Z,4.08
2022-12-07T04:33:20.288Z,3.98
2022-12-07T04:34:20.330Z,4.01
2022-12-07T04:35:20.273Z,4.01
2022-12-07T04:36:20.252Z,4.01
2022-12-07T04:37:20.250Z,4.02
2022-12-07T04:38:20.266Z,4.05
2022-12-07T04:39:20.268Z,4.10
2022-12-07T04:40:20.209Z,4.05
2022-12-07T04:41:20.218Z,4.05
2022-12-07T04:42:20.200Z,4.10
2022-12-07T04:43:20.213Z,4.05
2022-12-07T04:44:20.193Z,4.02
2022-12-07T04:45:20.200Z,4.14
2022-12-07T04:46:20.285Z,4.06
2022-12-07T04:47:20.161Z,4.05
2022-12-07T04:48:20.185Z,4.10
2022-12-07T04:49:20.155Z,4.04
2022-12-07T04:50:20.136Z,4.06
2022-12-07T04:51:20.172Z,3.99
2022-12-07T04:52:20.124Z,4.01
2022-12-07T04:53:20.135Z,3.99
2022-12-07T04:54:20.145Z,4.01
2022-12-07T04:55:20.124Z,3.98
2022-12-07T04:56:20.100Z,3.99
2022-12-07T04:57:20.098Z,4.01
2022-12-07T04:58:20.077Z,4.02
2022-12-07T04:59:20.120Z,4.01
2022-12-07T05:00:20.050Z,3.98
2022-12-07T05:01:21.120Z,4.01
2022-12-07T05:02:20.198Z,3.96
2022-12-07T05:03:20.066Z,3.99
2022-12-07T05:04:20.046Z,3.95
2022-12-07T05:05:20.035Z,3.95
2022-12-07T05:06:20.041Z,4.01
2022-12-07T05:07:20.018Z,3.95
2022-12-07T05:08:20.092Z,3.95
2022-12-07T05:09:20.007Z,4.01
2022-12-07T05:10:20.018Z,3.96
2022-12-07T05:11:19.978Z,4.05
2022-12-07T05:12:20.012Z,3.99
2022-12-07T05:13:20.013Z,4.06
2022-12-07T05:14:19.961Z,4.02
2022-12-07T05:15:19.956Z,4.05
2022-12-07T05:16:20.012Z,4.05
2022-12-07T05:17:19.956Z,3.98
2022-12-07T05:18:19.955Z,4.02
2022-12-07T05:19:19.961Z,3.98
2022-12-07T05:20:19.924Z,4.01
2022-12-07T05:21:20.164Z,4.04
2022-12-07T05:22:19.906Z,3.99
2022-12-07T05:23:19.883Z,4.04
2022-12-07T05:24:19.929Z,4.06
2022-12-07T05:25:19.868Z,3.96
2022-12-07T05:26:19.905Z,4.04
2022-12-07T05:27:19.886Z,3.99
2022-12-07T05:28:19.872Z,4.06
2022-12-07T05:29:19.850Z,4.01
2022-12-07T05:30:19.836Z,4.01
2022-12-07T05:31:19.866Z,4.02
2022-12-07T05:32:19.862Z,3.99
2022-12-07T05:33:19.851Z,4.02
2022-12-07T05:34:19.813Z,3.96
2022-12-07T05:35:19.810Z,3.96
2022-12-07T05:36:19.853Z,3.99
2022-12-07T05:37:19.857Z,4.02
2022-12-07T05:38:19.808Z,4.04
2022-12-07T05:39:19.772Z,4.01
2022-12-07T05:40:19.777Z,4.02
2022-12-07T05:41:19.883Z,4.04
2022-12-07T05:42:21.100Z,4.08
2022-12-07T05:43:19.799Z,3.99
2022-12-07T05:44:19.768Z,4.08
2022-12-07T05:45:19.731Z,4.02
2022-12-07T05:47:26.304Z,4.05
2022-12-07T05:48:26.351Z,4.12
2022-12-07T05:49:26.464Z,4.08
2022-12-07T05:50:27.481Z,4.06
2022-12-07T05:51:28.868Z,4.19
2022-12-07T05:52:27.498Z,4.08
2022-12-07T05:53:28.445Z,4.05
2022-12-07T05:54:27.495Z,3.96
2022-12-07T05:55:27.487Z,4.06
2022-12-07T05:56:27.455Z,4.04
2022-12-07T05:57:27.398Z,3.99
2022-12-07T05:58:27.480Z,4.08
2022-12-07T05:59:27.472Z,4.05
2022-12-07T06:00:27.506Z,4.06
2022-12-07T06:01:27.453Z,3.96
2022-12-07T06:02:27.540Z,4.08
2022-12-07T06:03:27.474Z,3.98
2022-12-07T06:04:27.390Z,3.96
2022-12-07T06:05:27.375Z,4.02
2022-12-07T06:06:27.453Z,3.94
2022-12-07T06:07:27.354Z,3.99
2022-12-07T06:08:28.390Z,3.91
2022-12-07T06:09:27.353Z,3.92
2022-12-07T06:10:27.348Z,3.92
2022-12-07T06:11:27.358Z,3.98
2022-12-07T06:12:27.330Z,3.99
2022-12-07T06:13:27.297Z,4.02
2022-12-07T06:14:28.995Z,3.94
2022-12-07T06:15:27.292Z,3.91
2022-12-07T06:16:27.384Z,3.87
2022-12-07T06:17:27.260Z,3.80
2022-12-07T06:18:27.330Z,3.92
2022-12-07T06:19:27.226Z,3.77
2022-12-07T06:20:27.237Z,3.80
2022-12-07T06:21:27.276Z,3.80
2022-12-07T06:22:27.218Z,3.80
2022-12-07T06:23:27.197Z,3.88
2022-12-07T06:24:59.191Z,3.77
2022-12-07T06:25:27.171Z,3.78
2022-12-07T06:26:27.222Z,3.87
2022-12-07T06:27:27.180Z,3.94
2022-12-07T06:28:27.144Z,3.81
2022-12-07T06:29:28.117Z,3.81
2022-12-07T06:30:27.143Z,3.84
2022-12-07T06:31:27.201Z,3.92
2022-12-07T06:32:27.126Z,3.80
2022-12-07T06:33:27.135Z,3.73
2022-12-07T06:34:59.033Z,3.74
2022-12-07T06:35:28.099Z,3.70
2022-12-07T06:36:28.083Z,3.65
2022-12-07T06:37:27.323Z,3.66
2022-12-07T06:38:27.066Z,3.56
2022-12-07T06:39:27.064Z,3.56
2022-12-07T06:40:27.127Z,3.51
2022-12-07T06:41:27.126Z,3.47
2022-12-07T06:42:27.047Z,3.58
2022-12-07T06:43:27.040Z,3.55
2022-12-07T06:44:27.040Z,3.56
2022-12-07T06:45:27.010Z,3.50
2022-12-07T06:46:27.051Z,3.50
2022-12-07T06:47:43.763Z,3.51
2022-12-07T06:48:29.010Z,3.53
2022-12-07T06:49:27.015Z,3.62
2022-12-07T06:50:27.023Z,3.60
2022-12-07T06:51:26.986Z,3.51
2022-12-07T06:52:26.976Z,3.56
2022-12-07T06:53:27.041Z,3.60
2022-12-07T06:54:27.018Z,3.65
2022-12-07T06:55:26.998Z,3.58
2022-12-07T06:56:26.980Z,3.58
2022-12-07T06:57:26.953Z,3.59
2022-12-07T06:58:26.950Z,3.65
2022-12-07T06:59:26.952Z,3.65
2022-12-07T07:00:26.953Z,3.59
2022-12-07T07:01:27.013Z,3.70
2022-12-07T07:02:26.929Z,3.74
2022-12-07T07:03:26.971Z,3.59
2022-12-07T07:04:26.915Z,3.55
2022-12-07T07:05:26.915Z,3.68
2022-12-07T07:06:26.877Z,3.66
2022-12-07T07:07:26.902Z,3.60
2022-12-07T07:08:26.928Z,3.47
2022-12-07T07:09:26.940Z,3.58
2022-12-07T07:10:26.904Z,3.48
2022-12-07T07:11:26.985Z,3.51
2022-12-07T07:12:26.850Z,3.50
2022-12-07T07:13:26.831Z,3.56
2022-12-07T07:14:26.863Z,3.41
2022-12-07T07:15:26.833Z,3.42
2022-12-07T07:16:58.744Z,3.36
2022-12-07T07:17:26.852Z,3.42
2022-12-07T07:18:26.784Z,3.44
2022-12-07T07:19:26.765Z,3.44
2022-12-07T07:20:26.817Z,3.51
2022-12-07T07:21:26.739Z,3.50
2022-12-07T07:22:26.819Z,3.51
2022-12-07T07:23:26.748Z,3.50
2022-12-07T07:24:26.756Z,3.56
2022-12-07T07:25:26.739Z,3.53
2022-12-07T07:26:58.661Z,3.47
2022-12-07T07:27:26.763Z,3.62
2022-12-07T07:28:26.689Z,3.58
2022-12-07T07:29:26.741Z,3.59
2022-12-07T07:30:26.785Z,3.63
2022-12-07T07:31:26.720Z,3.63
2022-12-07T07:32:26.735Z,3.68
2022-12-07T07:33:26.693Z,3.59
2022-12-07T07:34:26.659Z,3.65
2022-12-07T07:35:26.683Z,3.68
2022-12-07T07:36:26.667Z,3.60
2022-12-07T07:37:26.658Z,3.65
2022-12-07T07:38:26.680Z,3.65
2022-12-07T07:39:26.629Z,3.66
2022-12-07T07:40:27.223Z,3.70
2022-12-07T07:41:26.628Z,3.66
2022-12-07T07:42:26.582Z,3.66
2022-12-07T07:43:26.632Z,3.69
2022-12-07T07:44:31.582Z,3.69
2022-12-07T07:45:28.590Z,3.69
2022-12-07T07:46:26.755Z,3.73
2022-12-07T07:47:26.573Z,3.76
2022-12-07T07:48:26.604Z,3.80
2022-12-07T07:49:26.553Z,3.73
2022-12-07T07:50:26.532Z,3.83
2022-12-07T07:51:26.530Z,3.83
2022-12-07T07:52:26.549Z,3.77
2022-12-07T07:53:26.553Z,3.91
2022-12-07T07:54:26.576Z,3.95
2022-12-07T07:55:26.536Z,3.98
2022-12-07T07:56:26.508Z,3.88
2022-12-07T07:57:26.528Z,4.02
2022-12-07T07:58:26.487Z,3.94
2022-12-07T07:59:26.555Z,3.94
2022-12-07T08:00:26.469Z,4.01
2022-12-07T08:01:26.531Z,3.91
2022-12-07T08:02:26.485Z,4.01
2022-12-07T08:03:26.438Z,4.01
2022-12-07T08:04:26.493Z,4.04
2022-12-07T08:05:26.492Z,4.01
2022-12-07T08:06:31.948Z,4.02
2022-12-07T08:07:28.422Z,3.96
2022-12-07T08:08:26.535Z,3.96
2022-12-07T08:09:26.426Z,3.99
2022-12-07T08:10:26.430Z,4.04
2022-12-07T08:11:26.366Z,3.96
2022-12-07T08:12:26.375Z,4.12
2022-12-07T08:13:30.913Z,4.04
2022-12-07T08:14:28.177Z,4.06
2022-12-07T08:15:26.375Z,4.02
2022-12-07T08:16:27.248Z,4.08
2022-12-07T08:17:26.430Z,4.13
2022-12-07T08:18:26.349Z,4.08
2022-12-07T08:19:26.351Z,4.20
2022-12-07T08:20:26.406Z,4.01
2022-12-07T08:21:26.333Z,4.17
2022-12-07T08:22:26.303Z,4.12
2022-12-07T08:23:33.567Z,4.10
2022-12-07T08:24:28.263Z,4.08
2022-12-07T08:25:26.259Z,4.16
2022-12-07T08:26:26.252Z,4.13
2022-12-07T08:27:26.258Z,4.12
2022-12-07T08:28:26.313Z,4.20
2022-12-07T08:29:59.209Z,4.17
2022-12-07T08:30:26.358Z,4.22
2022-12-07T08:31:26.535Z,4.17
2022-12-07T08:32:26.230Z,4.14
2022-12-07T08:33:26.445Z,4.35
2022-12-07T08:34:59.403Z,4.34
2022-12-07T08:35:26.275Z,4.31
2022-12-07T08:36:26.199Z,4.32
2022-12-07T08:37:26.184Z,4.34
2022-12-07T08:38:31.561Z,4.45
2022-12-07T08:39:32.289Z,4.40
2022-12-07T08:40:27.256Z,4.31
2022-12-07T08:41:26.380Z,4.24
2022-12-07T08:42:26.162Z,4.34
2022-12-07T08:43:26.141Z,4.41
2022-12-07T08:44:26.124Z,4.41
2022-12-07T08:45:27.592Z,4.40
2022-12-07T08:46:27.163Z,4.41
2022-12-07T08:47:26.243Z,4.40
2022-12-07T08:48:26.184Z,4.40
2022-12-07T08:49:26.087Z,4.34
2022-12-07T08:50:26.308Z,4.38
2022-12-07T08:51:26.071Z,4.42
2022-12-07T08:52:26.087Z,4.38
2022-12-07T08:53:26.060Z,4.45
2022-12-07T08:54:26.097Z,4.49
2022-12-07T08:55:26.047Z,4.49
2022-12-07T08:56:26.044Z,4.45
2022-12-07T08:57:26.054Z,4.52
2022-12-07T08:58:26.043Z,4.58
2022-12-07T08:59:26.744Z,4.60
2022-12-07T09:00:26.054Z,4.60
2022-12-07T09:01:26.121Z,4.53
2022-12-07T09:02:26.015Z,4.52
2022-12-07T09:03:26.128Z,4.71
2022-12-07T09:04:25.984Z,4.73
2022-12-07T09:05:25.988Z,4.84
2022-12-07T09:06:26.064Z,4.96
2022-12-07T09:07:26.026Z,5.05
2022-12-07T09:08:26.016Z,5.05
2022-12-07T09:09:25.925Z,5.23
2022-12-07T09:10:25.930Z,5.15
2022-12-07T09:11:28.893Z,5.12
2022-12-07T09:12:26.942Z,5.18
2022-12-07T09:13:25.922Z,5.30
2022-12-07T09:14:25.890Z,5.47
2022-12-07T09:15:26.041Z,5.48
2022-12-07T09:16:25.972Z,5.64
2022-12-07T09:17:25.886Z,5.73
2022-12-07T09:18:25.900Z,5.66
2022-12-07T09:19:25.924Z,5.68
2022-12-07T09:20:58.251Z,5.51
2022-12-07T09:21:25.956Z,5.38
2022-12-07T09:22:25.939Z,5.30
2022-12-07T09:23:25.851Z,5.26
2022-12-07T09:24:25.852Z,5.26
2022-12-07T09:25:25.840Z,5.20
2022-12-07T09:26:25.798Z,5.20
2022-12-07T09:27:25.908Z,5.15
2022-12-07T09:28:25.786Z,5.17
2022-12-07T09:29:25.862Z,5.25
2022-12-07T09:30:25.791Z,5.17
2022-12-07T09:31:26.563Z,5.11
2022-12-07T09:32:26.855Z,5.08
2022-12-07T09:33:25.755Z,5.14
2022-12-07T09:34:25.836Z,5.10
2022-12-07T09:35:25.823Z,5.04
2022-12-07T09:36:25.738Z,5.10
2022-12-07T09:37:25.742Z,5.02
2022-12-07T09:38:25.743Z,5.12
2022-12-07T09:39:25.727Z,5.10
2022-12-07T09:40:25.805Z,5.00
2022-12-07T09:41:25.704Z,5.02
2022-12-07T09:42:25.758Z,5.07
2022-12-07T09:43:25.693Z,5.00
2022-12-07T09:44:25.738Z,4.97
2022-12-07T09:45:25.665Z,5.10
2022-12-07T09:46:25.735Z,5.10
2022-12-07T09:47:25.670Z,5.10
2022-12-07T09:48:25.661Z,5.25
2022-12-07T09:49:25.663Z,5.29
2022-12-07T09:50:25.629Z,5.29
2022-12-07T09:51:26.190Z,5.41
2022-12-07T09:52:25.607Z,5.35
2022-12-07T09:53:25.624Z,5.36
2022-12-07T09:54:25.615Z,5.53
2022-12-07T09:55:25.583Z,5.44
2022-12-07T09:56:25.633Z,5.53
2022-12-07T09:57:25.605Z,5.50
2022-12-07T09:58:25.618Z,5.61
2022-12-07T09:59:25.564Z,5.48
2022-12-07T10:00:25.586Z,5.46
2022-12-07T10:01:25.669Z,5.38
2022-12-07T10:02:26.415Z,5.41
2022-12-07T10:03:25.653Z,5.28
2022-12-07T10:04:25.621Z,5.15
2022-12-07T10:05:25.582Z,5.17
2022-12-07T10:06:25.516Z,5.18
2022-12-07T10:07:25.496Z,5.18
2022-12-07T10:08:25.658Z,5.12
2022-12-07T10:09:25.506Z,5.21
2022-12-07T10:10:25.528Z,5.18
2022-12-07T10:11:25.491Z,5.21
2022-12-07T10:12:25.509Z,5.29
2022-12-07T10:13:25.503Z,5.29
2022-12-07T10:14:44.295Z,5.35
2022-12-07T10:15:27.469Z,5.43
2022-12-07T10:16:25.534Z,5.43
2022-12-07T10:17:25.425Z,5.33
2022-12-07T10:18:25.472Z,5.46
2022-12-07T10:19:25.419Z,5.30
2022-12-07T10:20:25.417Z,5.41
2022-12-07T10:21:25.521Z,5.44
2022-12-07T10:22:31.589Z,5.50
2022-12-07T10:23:27.420Z,5.46
2022-12-07T10:24:25.385Z,5.44
2022-12-07T10:25:25.362Z,5.46
2022-12-07T10:26:25.368Z,5.41
2022-12-07T10:27:26.129Z,5.50
2022-12-07T10:28:25.352Z,5.43
2022-12-07T10:29:25.366Z,5.47
2022-12-07T10:30:25.324Z,5.41
2022-12-07T10:31:25.475Z,5.33
2022-12-07T10:32:25.314Z,5.36
2022-12-07T10:33:25.312Z,5.43
2022-12-07T10:34:25.335Z,5.43
2022-12-07T10:35:26.220Z,5.46
2022-12-07T10:36:25.427Z,5.51
2022-12-07T10:37:25.327Z,5.44
2022-12-07T10:38:25.271Z,5.38
2022-12-07T10:39:25.269Z,5.44
2022-12-07T10:40:25.312Z,5.46
2022-12-07T10:41:25.246Z,5.41
2022-12-07T10:42:25.280Z,5.26
2022-12-07T10:43:25.228Z,5.32
2022-12-07T10:44:25.272Z,5.20
2022-12-07T10:45:25.248Z,5.28
2022-12-07T10:46:25.383Z,5.17
2022-12-07T10:47:25.299Z,5.25
2022-12-07T10:48:25.233Z,5.26
2022-12-07T10:49:25.254Z,5.15
2022-12-07T10:50:25.194Z,5.32
2022-12-07T10:51:25.193Z,5.28
2022-12-07T10:52:25.211Z,5.32
2022-12-07T10:53:25.165Z,5.30
2022-12-07T10:54:25.297Z,5.23
2022-12-07T10:55:25.148Z,5.21
2022-12-07T10:56:25.211Z,5.26
2022-12-07T10:57:25.144Z,5.35
2022-12-07T10:58:25.114Z,5.30
2022-12-07T10:59:25.130Z,5.30
2022-12-07T11:00:25.218Z,5.30
2022-12-07T11:01:25.158Z,5.28
2022-12-07T11:02:25.200Z,5.35
2022-12-07T11:03:25.103Z,5.23
2022-12-07T11:04:25.079Z,5.28
2022-12-07T11:05:25.141Z,5.32
2022-12-07T11:06:25.060Z,5.25
2022-12-07T11:07:25.060Z,5.23
2022-12-07T11:08:25.146Z,5.32
2022-12-07T11:09:44.880Z,5.28
2022-12-07T11:10:27.142Z,5.25
2022-12-07T11:11:26.070Z,5.23
2022-12-07T11:12:25.081Z,5.28
2022-12-07T11:13:28.376Z,5.46
2022-12-07T11:14:26.052Z,5.84
2022-12-07T11:15:25.149Z,5.97
2022-12-07T11:16:25.063Z,6.24
2022-12-07T11:17:24.989Z,6.77
2022-12-07T11:18:25.010Z,7.03
2022-12-07T11:19:28.259Z,7.13
2022-12-07T11:20:25.962Z,7.45
2022-12-07T11:21:24.988Z,7.45
2022-12-07T11:22:24.956Z,7.54
2022-12-07T11:23:24.999Z,7.73
2022-12-07T11:24:24.951Z,7.69
2022-12-07T11:25:28.844Z,7.67
2022-12-07T11:26:25.929Z,7.38
2022-12-07T11:27:24.921Z,7.48
2022-12-07T11:28:24.968Z,7.69
2022-12-07T11:29:24.864Z,7.85
2022-12-07T11:30:24.942Z,8.26
2022-12-07T11:31:29.235Z,8.01
2022-12-07T11:32:25.888Z,7.76
2022-12-07T11:33:24.906Z,7.63
2022-12-07T11:34:24.895Z,7.48
2022-12-07T11:35:24.851Z,7.45
2022-12-07T11:36:24.852Z,7.25
2022-12-07T11:37:24.867Z,7.05
2022-12-07T11:38:28.197Z,6.95
2022-12-07T11:39:25.858Z,6.87
2022-12-07T11:40:24.846Z,6.93
2022-12-07T11:41:24.797Z,6.92
2022-12-07T11:42:24.807Z,6.74
2022-12-07T11:43:24.856Z,6.75
2022-12-07T11:44:27.530Z,6.82
2022-12-07T11:45:25.826Z,6.75
2022-12-07T11:46:24.831Z,6.85
2022-12-07T11:47:24.786Z,6.82
2022-12-07T11:48:24.753Z,6.69
2022-12-07T11:49:24.770Z,6.67
2022-12-07T11:50:25.105Z,6.95
2022-12-07T11:51:29.011Z,7.23
2022-12-07T11:52:25.736Z,7.39
2022-12-07T11:53:24.742Z,7.53
2022-12-07T11:54:24.714Z,7.40
2022-12-07T11:55:24.697Z,7.39
2022-12-07T11:56:24.721Z,7.25
2022-12-07T11:57:24.721Z,7.29
2022-12-07T11:58:24.719Z,7.35
2022-12-07T11:59:24.696Z,7.21
2022-12-07T12:00:24.673Z,7.20
2022-12-07T12:01:24.675Z,7.10
2022-12-07T12:02:24.885Z,7.03
2022-12-07T12:03:24.722Z,6.96
2022-12-07T12:04:24.614Z,6.56
2022-12-07T12:05:24.632Z,6.38
2022-12-07T12:06:24.620Z,6.41
2022-12-07T12:09:41.911Z,6.09
2022-12-07T12:10:26.669Z,5.83
2022-12-07T12:11:24.577Z,5.84
2022-12-07T12:15:25.587Z,5.43
2022-12-07T12:16:24.605Z,5.23
2022-12-07T12:17:24.534Z,5.26
2022-12-07T12:18:24.551Z,5.21
2022-12-07T12:19:24.585Z,5.23
2022-12-07T12:20:24.518Z,5.12
2022-12-07T12:21:24.525Z,5.14
2022-12-07T12:22:24.485Z,5.15
2022-12-07T12:23:24.670Z,5.10
2022-12-07T12:24:25.468Z,5.15
2022-12-07T12:25:24.544Z,5.07
2022-12-07T12:26:24.606Z,5.23
2022-12-07T12:27:24.495Z,5.26
2022-12-07T12:28:24.524Z,5.11
2022-12-07T12:29:24.435Z,5.32
2022-12-07T12:30:25.406Z,5.62
2022-12-07T12:31:24.499Z,5.54
2022-12-07T12:32:24.654Z,5.64
2022-12-07T12:33:24.414Z,5.75
2022-12-07T12:34:24.427Z,5.68
2022-12-07T12:35:24.427Z,5.65
2022-12-07T12:36:24.473Z,5.62
2022-12-07T12:37:24.366Z,5.62
2022-12-07T12:38:24.460Z,5.73
2022-12-07T12:39:24.353Z,5.71
2022-12-07T12:40:24.412Z,5.66
2022-12-07T12:41:24.366Z,5.57
2022-12-07T12:42:24.332Z,5.68
2022-12-07T12:43:24.329Z,5.75
2022-12-07T12:44:24.351Z,5.86
2022-12-07T12:45:24.312Z,5.89
2022-12-07T12:46:24.377Z,5.98
2022-12-07T12:47:24.415Z,5.93
2022-12-07T12:48:25.155Z,5.91
2022-12-07T12:49:24.312Z,5.91
2022-12-07T12:50:24.271Z,6.07
2022-12-07T12:51:24.249Z,6.04
2022-12-07T12:52:24.254Z,6.08
2022-12-07T12:53:24.256Z,6.12
2022-12-07T12:54:24.294Z,6.05
2022-12-07T12:55:24.226Z,6.38
2022-12-07T12:56:24.525Z,6.46
2022-12-07T12:57:24.308Z,6.41
2022-12-07T12:58:24.215Z,6.60
2022-12-07T12:59:24.231Z,6.74
2022-12-07T13:00:24.219Z,6.69
2022-12-07T13:01:24.237Z,6.89
2022-12-07T13:02:24.348Z,6.87
2022-12-07T13:03:24.212Z,6.75
2022-12-07T13:04:24.205Z,6.66
2022-12-07T13:05:24.141Z,6.72
2022-12-07T13:06:24.161Z,6.59
2022-12-07T13:07:24.281Z,6.49
2022-12-07T13:08:24.196Z,6.31
2022-12-07T13:09:24.205Z,6.41
2022-12-07T13:10:24.139Z,6.36
2022-12-07T13:11:24.144Z,6.39
2022-12-07T13:12:24.097Z,6.35
2022-12-07T13:13:24.110Z,6.33
2022-12-07T13:14:24.098Z,6.27
2022-12-07T13:15:24.132Z,6.28
2022-12-07T13:16:24.136Z,6.24
2022-12-07T13:17:24.068Z,6.16
2022-12-07T13:18:24.120Z,6.08
2022-12-07T13:19:24.044Z,6.01
2022-12-07T13:20:24.163Z,6.01
2022-12-07T13:21:24.138Z,6.04
2022-12-07T13:22:24.031Z,5.91
2022-12-07T13:23:25.056Z,5.82
2022-12-07T13:24:24.083Z,5.86
2022-12-07T13:25:24.019Z,5.79
2022-12-07T13:26:24.010Z,5.76
2022-12-07T13:27:23.990Z,5.79
2022-12-07T13:28:24.009Z,5.79
2022-12-07T13:29:23.988Z,5.79
2022-12-07T13:30:25.806Z,5.80
2022-12-07T13:31:24.032Z,5.71
2022-12-07T13:32:23.967Z,5.73
2022-12-07T13:33:23.946Z,5.66
2022-12-07T13:34:24.032Z,5.66
2022-12-07T13:35:23.971Z,5.65
2022-12-07T13:36:23.929Z,5.66
2022-12-07T13:37:23.932Z,5.57
2022-12-07T13:38:23.945Z,5.69
2022-12-07T13:39:24.727Z,5.64